createdAt,value
2022-09-17T00:02:03.223Z,97701.51
2022-09-17T00:07:05.293Z,97693.53
2022-09-17T00:12:07.237Z,97687.05
2022-09-17T00:17:08.977Z,97695.29
2022-09-17T00:22:30.445Z,97706.73
2022-09-17T00:27:34.219Z,97708.09
2022-09-17T00:32:35.968Z,97702.98
2022-09-17T00:37:37.852Z,97701.02
2022-09-17T00:42:39.616Z,97701.42
2022-09-17T00:47:58.689Z,97699.06
2022-09-17T00:53:20.763Z,97691.96
2022-09-17T00:58:23.475Z,97689.67
2022-09-17T01:03:37.631Z,97690.89
2022-09-17T01:09:08.470Z,97688.05
2022-09-17T01:14:57.336Z,97684.02
2022-09-17T01:20:23.092Z,97682.65
2022-09-17T01:25:38.293Z,97677.77
2022-09-17T01:30:51.979Z,97676.20
2022-09-17T01:36:17.878Z,97673.30
2022-09-17T01:41:38.633Z,97668.28
2022-09-17T01:46:46.650Z,97662.87
2022-09-17T01:51:53.150Z,97665.36
2022-09-17T01:57:02.112Z,97667.86
2022-09-17T02:02:32.805Z,97671.36
2022-09-17T02:07:42.391Z,97664.04
2022-09-17T02:12:50.006Z,97668.35
2022-09-17T02:17:58.918Z,97674.32
2022-09-17T02:23:08.651Z,97675.02
2022-09-17T02:28:41.587Z,97679.88
2022-09-17T02:33:55.935Z,97677.95
2022-09-17T02:39:01.827Z,97682.63
2022-09-17T02:44:18.630Z,97682.35
2022-09-17T02:50:00.346Z,97674.39
2022-09-17T02:55:43.205Z,97673.92
2022-09-17T03:00:46.506Z,97674.84
2022-09-17T03:05:49.520Z,97673.89
2022-09-17T03:10:51.395Z,97665.84
2022-09-17T03:16:06.585Z,97664.98
2022-09-17T03:21:12.665Z,97665.01
2022-09-17T03:26:14.596Z,97660.59
2022-09-17T03:31:16.469Z,97657.96
2022-09-17T03:36:19.574Z,97657.49
2022-09-17T03:41:21.603Z,97655.30
2022-09-17T03:46:23.386Z,97653.66
2022-09-17T03:51:25.560Z,97646.39
2022-09-17T03:56:27.333Z,97638.21
2022-09-17T04:01:29.377Z,97635.27
2022-09-17T04:06:31.583Z,97626.26
2022-09-17T04:11:33.565Z,97634.26
2022-09-17T04:16:35.613Z,97635.29
2022-09-17T04:21:37.461Z,97635.09
2022-09-17T04:26:39.272Z,97628.65
2022-09-17T04:31:41.166Z,97622.30
2022-09-17T04:36:42.918Z,97621.54
2022-09-17T04:41:44.641Z,97624.17
2022-09-17T04:46:46.477Z,97614.40
2022-09-17T04:51:48.381Z,97617.66
2022-09-17T04:56:50.528Z,97624.90
2022-09-17T05:01:52.350Z,97632.03
2022-09-17T05:06:54.170Z,97635.67
2022-09-17T05:12:12.048Z,97638.41
2022-09-17T05:17:13.672Z,97645.85
2022-09-17T05:22:21.432Z,97642.74
2022-09-17T05:27:23.510Z,97651.92
2022-09-17T05:32:25.536Z,97640.69
2022-09-17T05:37:27.237Z,97640.26
2022-09-17T05:42:29.475Z,97634.56
2022-09-17T05:47:31.224Z,97644.34
2022-09-17T05:52:33.247Z,97649.13
2022-09-17T05:57:35.023Z,97653.16
2022-09-17T06:02:37.231Z,97650.80
2022-09-17T06:07:39.254Z,97640.42
2022-09-17T06:12:40.914Z,97639.67
2022-09-17T06:17:43.551Z,97621.79
2022-09-17T06:22:45.593Z,97621.17
2022-09-17T06:27:47.417Z,97634.60
2022-09-17T06:32:49.878Z,97641.44
2022-09-17T06:38:11.448Z,97656.81
2022-09-17T06:43:21.829Z,97674.39
2022-09-17T06:48:24.715Z,97675.73
2022-09-17T06:53:26.418Z,97679.69
2022-09-17T06:58:30.025Z,97670.39
2022-09-17T07:03:35.889Z,97675.68
2022-09-17T07:08:38.476Z,97672.15
2022-09-17T07:13:40.352Z,97665.63
2022-09-17T07:18:42.235Z,97676.69
2022-09-17T07:23:44.781Z,97680.79
2022-09-17T07:29:06.429Z,97682.75
2022-09-17T07:34:22.146Z,97689.80
2022-09-17T07:39:23.842Z,97690.16
2022-09-17T07:44:30.266Z,97688.27
2022-09-17T07:49:32.304Z,97696.30
2022-09-17T07:54:34.573Z,97691.48
2022-09-17T07:59:36.667Z,97681.56
2022-09-17T08:04:38.552Z,97671.48
2022-09-17T08:09:59.272Z,97668.89
2022-09-17T08:15:01.612Z,97668.23
2022-09-17T08:20:03.617Z,97672.67
2022-09-17T08:25:06.750Z,97677.66
2022-09-17T08:30:09.339Z,97674.83
2022-09-17T08:35:11.961Z,97676.27
2022-09-17T08:40:21.321Z,97676.55
2022-09-17T08:45:34.888Z,97672.36
2022-09-17T08:50:42.067Z,97656.41
2022-09-17T08:56:00.912Z,97646.63
2022-09-17T09:01:23.961Z,97663.05
2022-09-17T09:06:32.926Z,97674.69
2022-09-17T09:11:41.569Z,97667.08
2022-09-17T09:16:56.722Z,97672.86
2022-09-17T09:22:26.120Z,97675.30
2022-09-17T09:27:29.455Z,97687.48
2022-09-17T09:32:40.383Z,97684.88
2022-09-17T09:38:14.100Z,97695.48
2022-09-17T09:44:03.683Z,97696.25
2022-09-17T09:49:50.227Z,97695.27
2022-09-17T09:55:01.080Z,97699.91
2022-09-17T10:00:38.861Z,97692.66
2022-09-17T10:05:59.217Z,97700.17
2022-09-17T10:11:16.968Z,97702.39
2022-09-17T10:16:21.744Z,97706.49
2022-09-17T10:21:32.565Z,97713.84
2022-09-17T10:26:37.110Z,97715.91
2022-09-17T10:31:55.021Z,97712.87
2022-09-17T10:36:58.564Z,97709.63
2022-09-17T10:42:22.120Z,97709.20
2022-09-17T10:47:30.533Z,97727.09
2022-09-17T10:52:34.475Z,97727.55
2022-09-17T10:58:10.344Z,97724.58
2022-09-17T11:03:43.770Z,97725.72
2022-09-17T11:09:16.231Z,97718.70
2022-09-17T11:14:49.530Z,97720.46
2022-09-17T11:20:39.965Z,97733.91
2022-09-17T11:25:57.150Z,97722.07
2022-09-17T11:31:39.844Z,97724.80
2022-09-17T11:37:00.379Z,97728.49
2022-09-17T11:42:07.857Z,97731.33
2022-09-17T11:47:17.400Z,97727.40
2022-09-17T11:52:25.788Z,97713.81
2022-09-17T11:57:35.341Z,97704.70
2022-09-17T12:03:06.876Z,97694.02
2022-09-17T12:08:24.074Z,97698.42
2022-09-17T12:13:51.106Z,97690.42
2022-09-17T12:19:01.103Z,97684.98
2022-09-17T12:24:28.672Z,97677.80
2022-09-17T12:29:45.784Z,97669.64
2022-09-17T12:35:15.073Z,97663.23
2022-09-17T12:40:36.123Z,97653.80
2022-09-17T12:45:50.442Z,97640.05
2022-09-17T12:51:27.800Z,97647.55
2022-09-17T12:56:51.111Z,97650.29
2022-09-17T13:02:05.326Z,97645.41
2022-09-17T13:07:26.234Z,97641.42
2022-09-17T13:12:33.710Z,97632.48
2022-09-17T13:18:31.396Z,97629.94
2022-09-17T13:23:43.913Z,97627.88
2022-09-17T13:28:52.514Z,97627.55
2022-09-17T13:33:57.495Z,97626.20
2022-09-17T13:39:01.712Z,97633.77
2022-09-17T13:44:06.178Z,97646.59
2022-09-17T13:49:16.939Z,97656.76
2022-09-17T13:54:21.311Z,97655.92
2022-09-17T13:59:27.930Z,97629.81
2022-09-17T14:04:41.845Z,97595.23
2022-09-17T14:09:50.339Z,97588.48
2022-09-17T14:14:52.743Z,97558.54
2022-09-17T14:19:55.521Z,97558.70
2022-09-17T14:24:58.423Z,97572.45
2022-09-17T14:30:12.934Z,97597.79
2022-09-17T14:35:20.611Z,97608.08
2022-09-17T14:40:59.423Z,97616.42
2022-09-17T14:46:07.063Z,97627.52
2022-09-17T14:51:42.426Z,97623.90
2022-09-17T14:57:09.798Z,97615.88
2022-09-17T15:02:33.282Z,97601.83
2022-09-17T15:07:35.373Z,97584.06
2022-09-17T15:12:38.967Z,97577.52
2022-09-17T15:17:42.382Z,97573.73
2022-09-17T15:22:50.099Z,97586.03
2022-09-17T15:27:57.114Z,97600.52
2022-09-17T15:33:00.167Z,97607.09
2022-09-17T15:38:23.676Z,97606.86
2022-09-17T15:43:31.621Z,97606.08
2022-09-17T15:48:37.108Z,97614.46
2022-09-17T15:53:39.019Z,97623.70
2022-09-17T15:58:40.757Z,97615.80
2022-09-17T16:03:45.651Z,97603.40
2022-09-17T16:08:56.086Z,97607.79
2022-09-17T16:14:00.336Z,97606.44
2022-09-17T16:19:03.678Z,97612.45
2022-09-17T16:24:25.396Z,97622.02
2022-09-17T16:29:31.308Z,97620.88
2022-09-17T16:34:33.429Z,97617.00
2022-09-17T16:39:35.278Z,97622.52
2022-09-17T16:44:37.224Z,97632.10
2022-09-17T16:49:39.062Z,97632.34
2022-09-17T16:54:40.961Z,97633.48
2022-09-17T16:59:42.658Z,97630.36
2022-09-17T17:04:44.398Z,97628.77
2022-09-17T17:09:46.428Z,97628.92
2022-09-17T17:14:50.165Z,97628.83
2022-09-17T17:19:53.076Z,97623.60
2022-09-17T17:24:55.285Z,97619.40
2022-09-17T17:29:57.008Z,97615.32
2022-09-17T17:34:58.848Z,97608.69
2022-09-17T17:40:01.901Z,97603.45
2022-09-17T17:45:05.985Z,97603.39
2022-09-17T17:50:16.059Z,97610.95
2022-09-17T17:55:17.957Z,97603.73
2022-09-17T18:00:40.415Z,97604.65
2022-09-17T18:05:58.991Z,97602.55
2022-09-17T18:11:04.187Z,97607.48
2022-09-17T18:16:12.110Z,97615.37
2022-09-17T18:21:21.972Z,97622.14
2022-09-17T18:26:28.011Z,97625.48
2022-09-17T18:31:32.000Z,97629.46
2022-09-17T18:36:36.409Z,97636.33
2022-09-17T18:41:40.744Z,97639.95
2022-09-17T18:46:43.088Z,97640.64
2022-09-17T18:51:44.954Z,97629.79
2022-09-17T18:56:46.733Z,97624.94
2022-09-17T19:01:49.497Z,97632.17
2022-09-17T19:07:11.533Z,97641.11
2022-09-17T19:12:23.856Z,97641.98
2022-09-17T19:17:26.294Z,97642.04
2022-09-17T19:22:42.430Z,97643.30
2022-09-17T19:27:54.155Z,97652.54
2022-09-17T19:32:56.025Z,97656.07
2022-09-17T19:37:58.945Z,97650.23
2022-09-17T19:43:03.381Z,97647.50
2022-09-17T19:48:05.117Z,97651.41
2022-09-17T19:53:06.844Z,97649.23
2022-09-17T19:58:08.633Z,97654.16
2022-09-17T20:03:10.933Z,97654.13
2022-09-17T20:08:12.698Z,97660.80
2022-09-17T20:13:17.341Z,97654.15
2022-09-17T20:18:23.289Z,97654.96
2022-09-17T20:23:31.078Z,97656.67
2022-09-17T20:28:37.588Z,97657.74
2022-09-17T20:33:40.110Z,97657.75
2022-09-17T20:39:11.491Z,97658.71
2022-09-17T20:44:06.630Z,97655.86
2022-09-17T20:49:08.634Z,97655.73
2022-09-17T20:54:10.672Z,97653.77
2022-09-17T20:59:21.384Z,97651.34
2022-09-17T21:04:24.217Z,97650.64
2022-09-17T21:09:26.076Z,97644.83
2022-09-17T21:14:27.965Z,97645.34
2022-09-17T21:19:29.856Z,97642.89
2022-09-17T21:24:31.632Z,97640.26
2022-09-17T21:29:33.552Z,97639.98
2022-09-17T21:34:35.277Z,97643.48
2022-09-17T21:39:37.334Z,97641.50
2022-09-17T21:44:39.482Z,97644.36
2022-09-17T21:50:01.390Z,97640.78
2022-09-17T21:55:16.718Z,97638.41
2022-09-17T22:00:23.189Z,97641.02
2022-09-17T22:05:25.419Z,97641.16
2022-09-17T22:10:28.520Z,97642.88
2022-09-17T22:15:30.407Z,97640.21
2022-09-17T22:20:44.927Z,97636.30
2022-09-17T22:25:49.295Z,97637.82
2022-09-17T22:30:54.112Z,97633.92
2022-09-17T22:36:08.521Z,97632.20
2022-09-17T22:41:16.018Z,97631.62
2022-09-17T22:46:21.365Z,97631.41
2022-09-17T22:51:24.301Z,97631.63
2022-09-17T22:56:28.134Z,97621.48
2022-09-17T23:01:33.870Z,97615.58
2022-09-17T23:06:38.340Z,97617.07
2022-09-17T23:11:48.883Z,97613.63
2022-09-17T23:17:14.369Z,97617.25
2022-09-17T23:22:23.296Z,97620.29
2022-09-17T23:27:25.132Z,97620.91
2022-09-17T23:32:27.054Z,97622.30
2022-09-17T23:37:28.791Z,97625.01
2022-09-17T23:42:35.802Z,97625.30
2022-09-17T23:47:37.469Z,97624.90
2022-09-17T23:52:39.357Z,97625.04
2022-09-17T23:57:41.211Z,97629.26
